Time;durP1;ratioP1;P1;durP2;ratioP2;P2;SDS_P1;SDS_P2;PMS_P1;PMS_P2;Temp;Humidity;BMP_temperature;BMP_pressure;BME280_temperature;BME280_humidity;BME280_pressure;Samples;Min_cycle;Max_cycle;Signal;HPM_P1;HPM_P2
2022/06/05 00:01:51;;;;;;;;;;;;;;;12.17;100.00;99550.94;5096515;28;19924;-79
2022/06/05 00:04:31;;;;;;;;;;;;;;;12.36;100.00;99543.84;5095124;28;19928;-79
2022/06/05 00:07:05;;;;;;;;;;;;;;;12.03;100.00;99551.13;5095584;28;20383;-79
2022/06/05 00:13:51;;;;;;;;;;;;;;;12.14;100.00;99551.78;5095377;28;19916;-80
2022/06/05 00:16:21;;;;;;;;;;;;;;;11.74;100.00;99546.34;5096236;28;19924;-80
2022/06/05 00:18:48;;;;;;;;;;;;;;;11.82;100.00;99542.22;5096125;28;19973;-79
2022/06/05 00:21:15;;;;;;;;;;;;;;;11.97;100.00;99549.22;5096072;28;20015;-80
2022/06/05 00:23:43;;;;;;;;;;;;;;;12.30;100.00;99546.31;5096074;28;19931;-79
2022/06/05 00:26:25;;;;;;;;;;;;;;;12.46;100.00;99554.88;5094678;28;19924;-80
2022/06/05 00:29:15;;;;;;;;;;;;;;;12.56;100.00;99556.72;5095905;28;19931;-80
2022/06/05 00:31:59;;;;;;;;;;;;;;;12.05;100.00;99565.53;5096008;28;20299;-80
2022/06/05 00:34:26;;;;;;;;;;;;;;;12.07;100.00;99560.28;5095764;28;20387;-79
2022/06/05 00:37:00;;;;;;;;;;;;;;;12.01;100.00;99561.19;5078002;28;19970;-80
2022/06/05 00:39:42;;;;;;;;;;;;;;;11.99;100.00;99552.41;5087454;28;19931;-79
2022/06/05 00:42:11;;;;;;;;;;;;;;;12.18;100.00;99549.72;5107466;28;20380;-79
2022/06/05 00:44:47;;;;;;;;;;;;;;;11.92;100.00;99546.91;5057580;28;19935;-79
2022/06/05 00:47:16;;;;;;;;;;;;;;;12.35;100.00;99536.66;5108231;28;19974;-80
2022/06/05 00:49:56;;;;;;;;;;;;;;;11.54;100.00;99543.34;5074130;28;19924;-79
2022/06/05 00:52:25;;;;;;;;;;;;;;;11.90;100.00;99538.94;5074048;28;19924;-79
2022/06/05 00:54:52;;;;;;;;;;;;;;;11.80;100.00;99525.84;5090816;28;20017;-79
2022/06/05 00:57:20;;;;;;;;;;;;;;;11.88;100.00;99529.34;5090470;28;19924;-80
2022/06/05 00:59:48;;;;;;;;;;;;;;;12.07;100.00;99529.47;5057391;28;20016;-79
2022/06/05 01:02:15;;;;;;;;;;;;;;;12.09;100.00;99527.03;5075319;28;19924;-79
2022/06/05 01:04:43;;;;;;;;;;;;;;;12.02;100.00;99541.16;5073817;28;19970;-80
2022/06/05 01:07:11;;;;;;;;;;;;;;;11.39;100.00;99524.38;5073312;28;19925;-79
2022/06/05 01:09:39;;;;;;;;;;;;;;;11.63;100.00;99524.06;5090845;28;20382;-80
2022/06/05 01:12:15;;;;;;;;;;;;;;;11.84;100.00;99515.41;5073445;28;20379;-79
2022/06/05 01:14:49;;;;;;;;;;;;;;;12.01;100.00;99517.16;5074839;28;19982;-80
2022/06/05 01:17:31;;;;;;;;;;;;;;;11.91;100.00;99511.69;5057105;28;20372;-79
2022/06/05 01:20:36;;;;;;;;;;;;;;;12.05;100.00;99508.69;5073564;28;20015;-80
2022/06/05 01:23:17;;;;;;;;;;;;;;;12.00;100.00;99509.97;5035814;28;19925;-79
2022/06/05 01:25:50;;;;;;;;;;;;;;;12.12;100.00;99502.97;5002327;28;19924;-80
2022/06/05 01:28:20;;;;;;;;;;;;;;;12.26;100.00;99494.38;5052682;28;19925;-80
2022/06/05 01:31:00;;;;;;;;;;;;;;;11.99;100.00;99490.78;5035979;28;19931;-82
2022/06/05 01:33:28;;;;;;;;;;;;;;;11.84;100.00;99498.63;5036103;28;19932;-81
2022/06/05 01:36:15;;;;;;;;;;;;;;;11.90;100.00;99505.31;5052754;28;20403;-81
2022/06/05 01:38:45;;;;;;;;;;;;;;;12.27;100.00;99502.34;5016411;28;20340;-81
2022/06/05 01:41:15;;;;;;;;;;;;;;;12.49;100.00;99502.81;4999817;28;19925;-81
2022/06/05 01:43:45;;;;;;;;;;;;;;;12.19;100.00;99495.25;4999593;28;19936;-81
2022/06/05 01:46:25;;;;;;;;;;;;;;;12.09;100.00;99495.44;5032808;28;19931;-81
2022/06/05 01:48:56;;;;;;;;;;;;;;;12.18;100.00;99488.09;5032475;28;20075;-81
2022/06/05 01:51:28;;;;;;;;;;;;;;;12.34;100.00;99491.00;5016276;28;19925;-81
2022/06/05 01:53:58;;;;;;;;;;;;;;;12.54;100.00;99483.47;4999770;28;20011;-81
2022/06/05 01:56:30;;;;;;;;;;;;;;;12.22;100.00;99471.22;5037362;28;20257;-81
2022/06/05 01:59:04;;;;;;;;;;;;;;;12.21;100.00;99486.44;5076357;28;19928;-81
2022/06/05 02:01:34;;;;;;;;;;;;;;;11.96;100.00;99506.44;5073096;28;19925;-80
2022/06/05 02:04:12;;;;;;;;;;;;;;;11.90;100.00;99508.13;5073464;28;20023;-81
2022/06/05 02:06:53;;;;;;;;;;;;;;;12.03;100.00;99514.72;5073061;28;19952;-81
2022/06/05 02:09:43;;;;;;;;;;;;;;;11.89;100.00;99506.53;5073761;28;19982;-80
2022/06/05 02:12:10;;;;;;;;;;;;;;;11.72;100.00;99504.75;5070071;28;19929;-80
2022/06/05 02:14:40;;;;;;;;;;;;;;;11.91;100.00;99494.91;5074476;28;19970;-81
2022/06/05 02:17:07;;;;;;;;;;;;;;;11.83;100.00;99490.63;5074092;28;20011;-80
2022/06/05 02:19:34;;;;;;;;;;;;;;;12.07;100.00;99487.44;5074128;28;20348;-81
2022/06/05 02:22:09;;;;;;;;;;;;;;;11.84;100.00;99498.63;5072873;28;19931;-80
2022/06/05 02:24:36;;;;;;;;;;;;;;;12.03;100.00;99486.72;5072534;28;19978;-80
2022/06/05 02:27:04;;;;;;;;;;;;;;;12.03;100.00;99494.31;5073171;28;20066;-80
2022/06/05 02:29:32;;;;;;;;;;;;;;;11.66;100.00;99494.47;5090086;28;19931;-80
2022/06/05 02:32:02;;;;;;;;;;;;;;;11.65;100.00;99499.25;5072865;28;19970;-82
2022/06/05 02:34:48;;;;;;;;;;;;;;;11.83;100.00;99502.63;5072557;28;19924;-81
2022/06/05 02:37:34;;;;;;;;;;;;;;;11.34;100.00;99508.84;5076669;28;20013;-81
2022/06/05 02:40:17;;;;;;;;;;;;;;;11.50;100.00;99508.22;5060420;28;20019;-81
2022/06/05 02:42:53;;;;;;;;;;;;;;;11.28;100.00;99512.50;5077017;28;20001;-80
2022/06/05 02:45:26;;;;;;;;;;;;;;;11.27;100.00;99513.72;5078396;28;19929;-80
2022/06/05 02:48:12;;;;;;;;;;;;;;;11.38;100.00;99517.16;5060442;28;19931;-81
2022/06/05 02:50:58;;;;;;;;;;;;;;;11.43;100.00;99506.34;5078314;28;19944;-80
2022/06/05 02:53:25;;;;;;;;;;;;;;;11.81;100.00;99498.66;5078100;28;19966;-81
2022/06/05 02:55:52;;;;;;;;;;;;;;;11.92;100.00;99493.72;5043751;28;20017;-80
2022/06/05 02:58:19;;;;;;;;;;;;;;;11.93;100.00;99493.28;5077725;28;19939;-80
2022/06/05 03:03:33;;;;;;;;;;;;;;;11.99;100.00;99488.78;5077778;28;20498;-81
2022/06/05 03:06:01;;;;;;;;;;;;;;;11.76;100.00;99493.53;5092689;28;19935;-81
2022/06/05 03:08:29;;;;;;;;;;;;;;;11.58;100.00;99504.13;5093525;28;19931;-81
2022/06/05 03:10:56;;;;;;;;;;;;;;;11.66;100.00;99509.22;5076311;28;19924;-80
2022/06/05 03:13:23;;;;;;;;;;;;;;;12.03;100.00;99509.13;5060081;28;19978;-81
2022/06/05 03:15:51;;;;;;;;;;;;;;;11.68;100.00;99515.22;5076290;28;20421;-80
2022/06/05 03:18:18;;;;;;;;;;;;;;;11.46;100.00;99507.50;5043079;28;20310;-80
2022/06/05 03:20:45;;;;;;;;;;;;;;;11.59;100.00;99500.91;5059433;28;19947;-81
2022/06/05 03:23:12;;;;;;;;;;;;;;;11.86;100.00;99504.56;5077246;28;19924;-81
2022/06/05 03:25:40;;;;;;;;;;;;;;;12.18;100.00;99499.28;5076369;28;20019;-81
2022/06/05 03:28:08;;;;;;;;;;;;;;;11.65;100.00;99499.25;5110069;28;19925;-81
2022/06/05 03:30:37;;;;;;;;;;;;;;;11.93;100.00;99498.88;5077254;28;19931;-81
2022/06/05 03:33:04;;;;;;;;;;;;;;;12.35;100.00;99492.63;5076360;28;19931;-81
2022/06/05 03:35:34;;;;;;;;;;;;;;;12.41;100.00;99496.53;5059067;28;19924;-80
2022/06/05 03:38:04;;;;;;;;;;;;;;;12.74;100.00;99486.34;5092818;28;19931;-80
2022/06/05 03:40:31;;;;;;;;;;;;;;;12.44;100.00;99478.84;5059585;28;19931;-80
2022/06/05 03:42:59;;;;;;;;;;;;;;;12.92;100.00;99481.19;5076963;28;20284;-81
2022/06/05 03:45:26;;;;;;;;;;;;;;;12.54;100.00;99480.66;5075487;28;19925;-80
2022/06/05 03:47:54;;;;;;;;;;;;;;;12.36;100.00;99477.38;5058590;28;19967;-81
2022/06/05 03:50:21;;;;;;;;;;;;;;;12.77;100.00;99474.25;5026194;28;19928;-80
2022/06/05 03:52:48;;;;;;;;;;;;;;;12.50;100.00;99460.34;5076976;28;19932;-81
2022/06/05 03:55:18;;;;;;;;;;;;;;;12.64;100.00;99456.50;5075731;28;19924;-80
2022/06/05 03:57:46;;;;;;;;;;;;;;;12.67;100.00;99453.63;5059029;28;19931;-80
2022/06/05 04:00:14;;;;;;;;;;;;;;;12.58;100.00;99446.97;5076995;28;19947;-80
2022/06/05 04:02:43;;;;;;;;;;;;;;;12.63;100.00;99446.50;5109483;28;19963;-80
2022/06/05 04:05:13;;;;;;;;;;;;;;;12.69;100.00;99445.56;5075146;28;20186;-80
2022/06/05 04:07:40;;;;;;;;;;;;;;;12.77;100.00;99439.84;5076634;28;20062;-81
2022/06/05 04:10:10;;;;;;;;;;;;;;;12.51;100.00;99436.69;5075802;28;19974;-80
2022/06/05 04:12:37;;;;;;;;;;;;;;;12.72;100.00;99444.69;5075731;28;19931;-80
2022/06/05 04:15:05;;;;;;;;;;;;;;;12.89;100.00;99437.16;5075599;28;19932;-80
2022/06/05 04:17:34;;;;;;;;;;;;;;;12.73;100.00;99426.69;5076273;28;19931;-80
2022/06/05 04:20:01;;;;;;;;;;;;;;;12.78;100.00;99437.38;5075922;28;19925;-80
2022/06/05 04:22:29;;;;;;;;;;;;;;;12.63;100.00;99436.06;5075380;28;19924;-80
2022/06/05 04:24:59;;;;;;;;;;;;;;;12.59;100.00;99429.75;5076234;28;20397;-80
2022/06/05 04:27:26;;;;;;;;;;;;;;;12.92;100.00;99435.53;5108966;28;20334;-80
2022/06/05 04:29:53;;;;;;;;;;;;;;;12.27;100.00;99435.09;5076330;28;19924;-81
2022/06/05 04:32:20;;;;;;;;;;;;;;;12.64;100.00;99420.84;5076077;28;19928;-81
2022/06/05 04:34:49;;;;;;;;;;;;;;;12.12;100.00;99418.94;5074505;28;19932;-80
2022/06/05 04:37:17;;;;;;;;;;;;;;;12.00;100.00;99420.34;5075892;28;19925;-80
2022/06/05 04:39:44;;;;;;;;;;;;;;;11.86;100.00;99426.16;5076031;28;20433;-80
2022/06/05 04:42:11;;;;;;;;;;;;;;;12.17;100.00;99413.69;5075942;28;19951;-80
2022/06/05 04:44:38;;;;;;;;;;;;;;;12.34;100.00;99412.56;5074650;28;19931;-80
2022/06/05 04:47:05;;;;;;;;;;;;;;;12.34;100.00;99418.16;5091921;28;19925;-81
2022/06/05 04:49:35;;;;;;;;;;;;;;;12.28;100.00;99410.69;5074426;28;19924;-80
2022/06/05 04:52:03;;;;;;;;;;;;;;;12.26;100.00;99411.13;5074574;28;20013;-80
2022/06/05 04:54:30;;;;;;;;;;;;;;;12.22;100.00;99407.56;5075635;28;19931;-80
2022/06/05 04:56:57;;;;;;;;;;;;;;;12.26;100.00;99411.13;5074380;28;20081;-80
2022/06/05 04:59:24;;;;;;;;;;;;;;;12.39;100.00;99409.28;5074575;28;19932;-80
2022/06/05 05:01:51;;;;;;;;;;;;;;;12.36;100.00;99410.13;5075445;28;19935;-80
2022/06/05 05:04:19;;;;;;;;;;;;;;;12.31;100.00;99396.59;5075160;28;19924;-80
2022/06/05 05:06:46;;;;;;;;;;;;;;;12.30;100.00;99406.22;5075522;28;19933;-80
2022/06/05 05:09:13;;;;;;;;;;;;;;;12.27;100.00;99400.69;5075567;28;19932;-80
2022/06/05 05:11:40;;;;;;;;;;;;;;;12.46;100.00;99405.56;5075489;28;20282;-80
2022/06/05 05:14:09;;;;;;;;;;;;;;;12.58;100.00;99405.75;5074320;28;20015;-80
2022/06/05 05:16:36;;;;;;;;;;;;;;;12.16;100.00;99406.47;5075220;28;19925;-80
2022/06/05 05:19:06;;;;;;;;;;;;;;;12.54;100.00;99402.19;5074070;28;20021;-80
2022/06/05 05:21:33;;;;;;;;;;;;;;;12.76;100.00;99399.78;5074971;28;19924;-81
2022/06/05 05:24:01;;;;;;;;;;;;;;;12.27;100.00;99401.50;5073930;28;20027;-80
2022/06/05 05:26:30;;;;;;;;;;;;;;;12.53;100.00;99389.41;5107516;28;19974;-80
2022/06/05 05:28:58;;;;;;;;;;;;;;;12.50;100.00;99387.47;5075084;28;19924;-80
2022/06/05 05:31:27;;;;;;;;;;;;;;;12.73;100.00;99395.03;5074955;28;19924;-80
2022/06/05 05:33:54;;;;;;;;;;;;;;;12.33;100.00;99388.56;5074825;28;19932;-80
2022/06/05 05:36:22;;;;;;;;;;;;;;;12.49;100.00;99393.50;5073666;28;19962;-80
2022/06/05 05:44:48;;;;;;;;;;;;;;;12.68;100.00;99393.53;5068197;28;20380;-80
2022/06/05 05:47:23;;;;;;;;;;;;;;;12.50;100.00;99387.47;5072095;28;19924;-80
2022/06/05 05:49:54;;;;;;;;;;;;;;;12.56;100.00;99385.75;5066092;28;19960;-80
2022/06/05 05:52:22;;;;;;;;;;;;;;;12.33;100.00;99382.97;5053488;28;20045;-80
2022/06/05 05:54:49;;;;;;;;;;;;;;;12.49;100.00;99387.88;5053241;28;19929;-80
2022/06/05 05:57:17;;;;;;;;;;;;;;;12.72;100.00;99385.81;5086456;28;20022;-80
2022/06/05 05:59:44;;;;;;;;;;;;;;;12.50;100.00;99393.06;5053249;28;19925;-80
2022/06/05 06:02:16;;;;;;;;;;;;;;;12.50;100.00;99381.84;5054504;28;20012;-80
2022/06/05 06:04:43;;;;;;;;;;;;;;;12.52;100.00;99378.63;5053202;28;19931;-80
2022/06/05 06:07:11;;;;;;;;;;;;;;;12.81;100.00;99379.66;5053083;28;20285;-80
2022/06/05 06:09:39;;;;;;;;;;;;;;;12.63;100.00;99374.38;5054100;28;20427;-80
2022/06/05 06:12:06;;;;;;;;;;;;;;;12.16;100.00;99384.06;5052840;28;20356;-80
2022/06/05 06:14:33;;;;;;;;;;;;;;;12.18;100.00;99392.84;5085911;28;19925;-80
2022/06/05 06:17:00;;;;;;;;;;;;;;;12.32;100.00;99391.81;5053774;28;19925;-80
2022/06/05 06:19:27;;;;;;;;;;;;;;;12.39;100.00;99386.06;5053447;28;19932;-80
2022/06/05 06:21:57;;;;;;;;;;;;;;;12.24;100.00;99384.72;5083487;28;20291;-80
2022/06/05 06:24:24;;;;;;;;;;;;;;;12.43;100.00;99393.19;5094274;28;19924;-81
2022/06/05 06:26:51;;;;;;;;;;;;;;;12.22;100.00;99387.19;5092863;28;19924;-81
2022/06/05 06:29:18;;;;;;;;;;;;;;;12.34;100.00;99383.78;5093688;28;19928;-79
2022/06/05 06:31:45;;;;;;;;;;;;;;;12.22;100.00;99387.19;5093686;28;20054;-78
2022/06/05 06:34:12;;;;;;;;;;;;;;;12.37;100.00;99394.13;5078445;28;19951;-78
2022/06/05 06:36:40;;;;;;;;;;;;;;;12.51;100.00;99382.66;5080254;28;19990;-80
2022/06/05 06:39:16;;;;;;;;;;;;;;;12.62;100.00;99386.84;5060931;28;19925;-79
2022/06/05 06:41:43;;;;;;;;;;;;;;;12.46;100.00;99378.31;5062701;28;19986;-80
2022/06/05 06:44:11;;;;;;;;;;;;;;;12.26;100.00;99388.72;5069560;28;20014;-80
2022/06/05 06:46:38;;;;;;;;;;;;;;;12.19;100.00;99383.22;5073649;28;19924;-79
2022/06/05 06:49:05;;;;;;;;;;;;;;;12.32;100.00;99381.41;5069228;28;19948;-80
2022/06/05 06:51:32;;;;;;;;;;;;;;;12.24;100.00;99379.94;5052532;28;19948;-79
2022/06/05 06:53:59;;;;;;;;;;;;;;;12.37;100.00;99380.88;5085283;28;19928;-79
2022/06/05 06:56:28;;;;;;;;;;;;;;;12.59;100.00;99382.09;5074421;28;19925;-79
2022/06/05 06:58:55;;;;;;;;;;;;;;;12.24;100.00;99373.53;5067783;28;20407;-79
2022/06/05 07:01:22;;;;;;;;;;;;;;;12.05;100.00;99380.66;5064828;28;19942;-80
2022/06/05 07:03:49;;;;;;;;;;;;;;;11.90;100.00;99370.94;5066111;28;20494;-79
2022/06/05 07:06:17;;;;;;;;;;;;;;;11.96;100.00;99379.63;5073213;28;20379;-80
2022/06/05 07:08:44;;;;;;;;;;;;;;;12.14;100.00;99383.72;5061133;28;20020;-79
2022/06/05 07:11:13;;;;;;;;;;;;;;;12.01;100.00;99385.53;5114448;28;19925;-80
2022/06/05 07:13:44;;;;;;;;;;;;;;;11.90;100.00;99382.13;5084478;28;20030;-79
2022/06/05 07:16:11;;;;;;;;;;;;;;;11.86;100.00;99381.38;5069666;28;20350;-79
2022/06/05 07:18:39;;;;;;;;;;;;;;;12.23;100.00;99377.56;5081099;28;20354;-79
2022/06/05 07:21:11;;;;;;;;;;;;;;;12.08;100.00;99371.41;5067575;28;19940;-79
2022/06/05 07:23:38;;;;;;;;;;;;;;;11.99;100.00;99368.38;5078246;28;19982;-79
2022/06/05 07:26:06;;;;;;;;;;;;;;;12.11;100.00;99367.75;5077170;28;20288;-78
2022/06/05 07:28:33;;;;;;;;;;;;;;;12.14;100.00;99368.91;5095286;27;20294;-79
2022/06/05 07:31:01;;;;;;;;;;;;;;;11.94;100.00;99366.03;5085403;28;20391;-78
2022/06/05 07:34:10;;;;;;;;;;;;;;;12.15;100.00;99376.09;5089624;28;19916;-78
2022/06/05 07:36:38;;;;;;;;;;;;;;;12.07;100.00;99375.41;5090850;28;19924;-78
2022/06/05 07:39:05;;;;;;;;;;;;;;;11.79;100.00;99375.91;5091343;28;20011;-78
2022/06/05 07:41:33;;;;;;;;;;;;;;;12.04;100.00;99364.28;5089637;28;19977;-78
2022/06/05 07:44:00;;;;;;;;;;;;;;;12.14;100.00;99364.09;5091133;28;19975;-78
2022/06/05 07:46:28;;;;;;;;;;;;;;;12.28;100.00;99361.03;5095145;28;19959;-78
2022/06/05 07:48:55;;;;;;;;;;;;;;;12.12;100.00;99358.13;5108992;28;19924;-78
2022/06/05 07:54:27;;;;;;;;;;;;;;;12.24;100.00;99357.50;5093204;28;19931;-78
2022/06/05 07:56:59;;;;;;;;;;;;;;;12.39;100.00;99344.03;5090578;28;20295;-79
2022/06/05 07:59:28;;;;;;;;;;;;;;;12.44;100.00;99355.53;5090788;28;19971;-76
2022/06/05 08:01:59;;;;;;;;;;;;;;;12.27;100.00;99348.25;5098419;28;19924;-77
2022/06/05 08:04:27;;;;;;;;;;;;;;;12.35;100.00;99348.91;5109759;28;19924;-77
2022/06/05 08:06:55;;;;;;;;;;;;;;;12.30;100.00;99346.59;5109709;28;19934;-76
2022/06/05 08:09:22;;;;;;;;;;;;;;;12.62;100.00;99344.78;5109711;28;19924;-77
2022/06/05 08:11:50;;;;;;;;;;;;;;;12.69;100.00;99341.81;5110422;28;19944;-77
2022/06/05 08:14:17;;;;;;;;;;;;;;;12.78;100.00;99342.03;5109505;28;19924;-77
2022/06/05 08:16:44;;;;;;;;;;;;;;;12.37;100.00;99327.63;5109608;28;20295;-76
2022/06/05 08:19:12;;;;;;;;;;;;;;;12.59;100.00;99328.81;5106767;28;19960;-76
2022/06/05 08:21:40;;;;;;;;;;;;;;;12.70;100.00;99317.41;5072281;28;19924;-77
2022/06/05 08:24:08;;;;;;;;;;;;;;;12.66;100.00;99317.47;5072437;28;19970;-77
2022/06/05 08:26:35;;;;;;;;;;;;;;;12.34;100.00;99310.91;5089923;28;19924;-76
2022/06/05 08:29:03;;;;;;;;;;;;;;;12.42;100.00;99312.34;5090205;28;20011;-76
2022/06/05 08:31:30;;;;;;;;;;;;;;;12.35;100.00;99304.88;5071618;28;19974;-76
2022/06/05 08:33:58;;;;;;;;;;;;;;;12.26;100.00;99306.66;5081629;28;19924;-75
2022/06/05 08:36:25;;;;;;;;;;;;;;;12.37;100.00;99315.66;5084876;28;19974;-75
2022/06/05 08:41:53;;;;;;;;;;;;;;;12.25;100.00;99313.50;5085669;28;19933;-75
2022/06/05 08:44:23;;;;;;;;;;;;;;;12.00;100.00;99319.53;5078385;28;20975;-75
2022/06/05 08:47:01;;;;;;;;;;;;;;;12.24;100.00;99326.69;5065456;28;20011;-75
2022/06/05 08:49:45;;;;;;;;;;;;;;;12.17;100.00;99329.63;5076381;28;19924;-75
2022/06/05 08:52:39;;;;;;;;;;;;;;;12.27;100.00;99328.63;5071688;28;19925;-75
2022/06/05 08:55:12;;;;;;;;;;;;;;;12.26;100.00;99334.66;5056097;28;19964;-75
2022/06/05 08:57:45;;;;;;;;;;;;;;;12.36;100.00;99337.28;5060211;28;19925;-75
2022/06/05 09:00:17;;;;;;;;;;;;;;;12.51;100.00;99344.19;5073963;28;19951;-80
2022/06/05 09:02:50;;;;;;;;;;;;;;;12.80;100.00;99340.84;5084542;28;20531;-77
2022/06/05 09:05:35;;;;;;;;;;;;;;;12.09;100.00;99332.97;5071969;28;19924;-77
2022/06/05 09:08:08;;;;;;;;;;;;;;;12.95;100.00;99330.91;5083041;28;20674;-75
2022/06/05 09:10:48;;;;;;;;;;;;;;;12.72;100.00;99338.16;5077864;28;19924;-76
2022/06/05 09:13:24;;;;;;;;;;;;;;;12.45;100.00;99334.69;5073181;28;19925;-76
2022/06/05 09:16:05;;;;;;;;;;;;;;;12.60;100.00;99341.59;5071625;28;19950;-75
2022/06/05 09:18:35;;;;;;;;;;;;;;;12.71;100.00;99338.59;5051979;28;19928;-75
2022/06/05 09:21:23;;;;;;;;;;;;;;;12.72;100.00;99331.78;5063251;28;20406;-76
2022/06/05 09:24:05;;;;;;;;;;;;;;;12.63;100.00;99343.56;5062023;28;20521;-77
2022/06/05 09:26:44;;;;;;;;;;;;;;;12.75;100.00;99339.31;5106265;28;20376;-76
2022/06/05 09:29:23;;;;;;;;;;;;;;;12.81;100.00;99334.00;5085424;28;19985;-76
2022/06/05 09:31:53;;;;;;;;;;;;;;;12.81;100.00;99329.19;5094315;28;19931;-76
2022/06/05 09:34:28;;;;;;;;;;;;;;;12.84;100.00;99328.31;5094491;28;19924;-75
2022/06/05 09:37:16;;;;;;;;;;;;;;;13.05;100.00;99322.28;5095721;28;20356;-75
2022/06/05 09:39:45;;;;;;;;;;;;;;;12.64;100.00;99319.91;5095540;28;20249;-75
2022/06/05 09:42:31;;;;;;;;;;;;;;;12.80;100.00;99321.22;5082881;28;20332;-76
2022/06/05 09:44:58;;;;;;;;;;;;;;;12.76;100.00;99312.88;5098654;28;19928;-76
2022/06/05 09:47:34;;;;;;;;;;;;;;;12.94;100.00;99320.88;5055297;28;20370;-76
2022/06/05 09:50:03;;;;;;;;;;;;;;;13.08;100.00;99326.22;5087672;28;19931;-75
2022/06/05 09:52:31;;;;;;;;;;;;;;;13.41;100.00;99323.06;5053523;28;19925;-76
2022/06/05 09:55:06;;;;;;;;;;;;;;;13.21;100.00;99319.50;5054904;28;19925;-76
2022/06/05 10:00:28;;;;;;;;;;;;;;;13.24;100.00;99329.09;5055000;28;19935;-76
2022/06/05 10:03:01;;;;;;;;;;;;;;;13.19;100.00;99332.41;5069629;28;19978;-76
2022/06/05 10:05:30;;;;;;;;;;;;;;;13.46;100.00;99322.56;5075985;28;20372;-75
2022/06/05 10:08:16;;;;;;;;;;;;;;;13.30;100.00;99330.94;5075160;28;19924;-76
2022/06/05 10:10:45;;;;;;;;;;;;;;;13.14;100.00;99324.50;5095217;28;19947;-75
2022/06/05 10:13:12;;;;;;;;;;;;;;;13.05;100.00;99327.09;5093914;28;20280;-75
2022/06/05 10:15:52;;;;;;;;;;;;;;;12.81;100.00;99322.78;5093809;28;19974;-76
2022/06/05 10:18:52;;;;;;;;;;;;;;;13.00;100.00;99320.00;5093898;28;19973;-75
2022/06/05 10:21:22;;;;;;;;;;;;;;;12.98;100.00;99311.19;5075743;28;19924;-77
2022/06/05 10:23:58;;;;;;;;;;;;;;;13.11;100.00;99303.72;5074679;28;19978;-75
2022/06/05 10:26:33;;;;;;;;;;;;;;;13.02;100.00;99308.34;5074439;28;19976;-75
2022/06/05 10:29:23;;;;;;;;;;;;;;;13.11;100.00;99314.16;5073496;28;19931;-75
2022/06/05 10:31:53;;;;;;;;;;;;;;;12.95;100.00;99314.84;5072949;28;19924;-77
2022/06/05 10:34:30;;;;;;;;;;;;;;;12.84;100.00;99321.91;5072928;28;19924;-77
2022/06/05 10:37:01;;;;;;;;;;;;;;;13.10;100.00;99309.75;5072931;28;19928;-77
2022/06/05 10:39:28;;;;;;;;;;;;;;;13.08;100.00;99309.41;5074448;28;19925;-76
2022/06/05 10:41:55;;;;;;;;;;;;;;;13.20;100.00;99308.72;5074013;28;20011;-76
2022/06/05 10:44:25;;;;;;;;;;;;;;;13.24;100.00;99301.81;5072324;28;19931;-76
2022/06/05 10:47:09;;;;;;;;;;;;;;;13.06;100.00;99295.81;5067577;28;19924;-77
2022/06/05 10:49:49;;;;;;;;;;;;;;;13.50;100.00;99302.81;5055606;28;19932;-77
2022/06/05 10:52:31;;;;;;;;;;;;;;;13.21;100.00;99307.53;5070363;28;20639;-77
2022/06/05 10:55:11;;;;;;;;;;;;;;;12.89;100.00;99304.59;5070227;28;19935;-77
2022/06/05 10:57:40;;;;;;;;;;;;;;;13.14;100.00;99302.06;5052157;28;19931;-76
2022/06/05 11:00:18;;;;;;;;;;;;;;;12.80;100.00;99305.16;5069323;28;19925;-76
2022/06/05 11:03:04;;;;;;;;;;;;;;;13.14;100.00;99302.84;5069449;28;20320;-76
2022/06/05 11:05:38;;;;;;;;;;;;;;;13.04;100.00;99297.47;5070354;28;19928;-76
2022/06/05 11:08:08;;;;;;;;;;;;;;;13.02;100.00;99294.31;5050144;28;19925;-76
2022/06/05 11:13:45;;;;;;;;;;;;;;;13.05;100.00;99294.25;5061561;28;19935;-77
2022/06/05 11:16:33;;;;;;;;;;;;;;;12.97;100.00;99291.97;5068777;28;19930;-77
2022/06/05 11:19:19;;;;;;;;;;;;;;;12.73;100.00;99285.69;5068880;28;19924;-76
2022/06/05 11:21:49;;;;;;;;;;;;;;;12.48;100.00;99283.38;5070001;28;19924;-76
2022/06/05 11:24:23;;;;;;;;;;;;;;;12.77;100.00;99285.63;5069544;28;19932;-78
2022/06/05 11:26:57;;;;;;;;;;;;;;;12.82;100.00;99288.69;5101346;28;19964;-75
2022/06/05 11:29:42;;;;;;;;;;;;;;;12.96;100.00;99279.19;5069250;28;19960;-74
2022/06/05 11:32:10;;;;;;;;;;;;;;;13.24;100.00;99279.34;5067998;28;19974;-76
2022/06/05 11:35:03;;;;;;;;;;;;;;;12.99;100.00;99261.50;5068296;28;20382;-76
2022/06/05 11:37:50;;;;;;;;;;;;;;;13.23;100.00;99260.97;5029606;28;19924;-76
2022/06/05 11:40:20;;;;;;;;;;;;;;;13.54;100.00;99267.03;5070337;28;19967;-77
2022/06/05 11:43:03;;;;;;;;;;;;;;;13.49;100.00;99251.50;5069753;28;19969;-77
2022/06/05 11:45:36;;;;;;;;;;;;;;;13.51;100.00;99248.25;5070257;28;19924;-77
2022/06/05 11:48:22;;;;;;;;;;;;;;;13.41;100.00;99250.09;5101624;28;19934;-76
2022/06/05 11:50:54;;;;;;;;;;;;;;;13.39;100.00;99246.16;5066823;28;20365;-76
2022/06/05 11:53:22;;;;;;;;;;;;;;;13.40;100.00;99242.91;5076560;28;19925;-76
2022/06/05 11:55:55;;;;;;;;;;;;;;;13.00;100.00;99251.88;5073141;28;20020;-76
2022/06/05 11:58:24;;;;;;;;;;;;;;;13.16;100.00;99260.34;5067338;28;19977;-76
2022/06/05 12:00:58;;;;;;;;;;;;;;;13.21;100.00;99252.19;5109417;28;19970;-76
2022/06/05 12:03:31;;;;;;;;;;;;;;;13.02;100.00;99244.63;5069049;28;19978;-79
2022/06/05 12:06:05;;;;;;;;;;;;;;;13.05;100.00;99252.16;5071656;28;19971;-77
2022/06/05 12:08:37;;;;;;;;;;;;;;;13.30;100.00;99234.75;5066340;28;19983;-78
2022/06/05 12:11:09;;;;;;;;;;;;;;;13.21;100.00;99240.19;5044417;28;19931;-76
2022/06/05 12:13:45;;;;;;;;;;;;;;;12.95;100.00;99238.34;5093347;28;19950;-76
2022/06/05 12:16:15;;;;;;;;;;;;;;;13.22;100.00;99236.16;5093415;28;19924;-77
2022/06/05 12:18:45;;;;;;;;;;;;;;;13.20;100.00;99230.97;5091686;28;19959;-77
2022/06/05 12:21:21;;;;;;;;;;;;;;;12.95;100.00;99233.50;5095935;28;19924;-77
2022/06/05 12:23:54;;;;;;;;;;;;;;;13.17;100.00;99231.03;5095775;28;19928;-77
2022/06/05 12:26:41;;;;;;;;;;;;;;;12.99;100.00;99233.44;5096633;28;20018;-77
2022/06/05 12:29:14;;;;;;;;;;;;;;;12.96;100.00;99228.72;5096866;28;20368;-77
2022/06/05 12:31:47;;;;;;;;;;;;;;;13.37;100.00;99226.16;5097047;28;19930;-77
2022/06/05 12:34:21;;;;;;;;;;;;;;;12.76;100.00;99223.13;5077919;28;19925;-77
2022/06/05 12:37:06;;;;;;;;;;;;;;;13.02;100.00;99232.59;5058781;28;19925;-77
2022/06/05 12:39:40;;;;;;;;;;;;;;;13.40;100.00;99217.66;5076155;28;19982;-77
2022/06/05 12:42:14;;;;;;;;;;;;;;;13.08;100.00;99225.25;5075362;28;20023;-76
2022/06/05 12:44:44;;;;;;;;;;;;;;;13.51;100.00;99215.34;5076359;28;19947;-77
2022/06/05 12:47:29;;;;;;;;;;;;;;;13.54;100.00;99219.31;5074263;28;20367;-76
2022/06/05 12:50:14;;;;;;;;;;;;;;;14.00;100.00;99214.06;5075262;28;19924;-77
2022/06/05 12:52:52;;;;;;;;;;;;;;;14.12;100.00;99212.53;5096322;28;20010;-77
2022/06/05 12:55:28;;;;;;;;;;;;;;;14.16;100.00;99210.41;5096459;28;19931;-77
2022/06/05 12:58:00;;;;;;;;;;;;;;;14.29;100.00;99214.06;5096387;28;19947;-77
2022/06/05 13:00:41;;;;;;;;;;;;;;;14.49;100.00;99204.22;5082233;28;20019;-77
2022/06/05 13:03:24;;;;;;;;;;;;;;;14.30;100.00;99198.78;5075516;28;19964;-78
2022/06/05 13:06:01;;;;;;;;;;;;;;;14.47;100.00;99197.47;5074371;28;19924;-77
2022/06/05 13:08:34;;;;;;;;;;;;;;;14.21;100.00;99207.03;5076011;28;19924;-77
2022/06/05 13:11:13;;;;;;;;;;;;;;;13.60;100.00;99200.72;5072583;28;19974;-77
2022/06/05 13:13:59;;;;;;;;;;;;;;;13.65;100.00;99208.56;5087684;28;20019;-76
2022/06/05 13:16:40;;;;;;;;;;;;;;;14.07;100.00;99210.28;5055662;28;19931;-76
2022/06/05 13:19:07;;;;;;;;;;;;;;;14.09;100.00;99204.97;5086965;28;20016;-77
2022/06/05 13:21:36;;;;;;;;;;;;;;;13.68;100.00;99202.09;5075627;28;19924;-77
2022/06/05 13:24:12;;;;;;;;;;;;;;;13.74;100.00;99205.94;5074363;28;20038;-77
2022/06/05 13:27:00;;;;;;;;;;;;;;;14.32;100.00;99199.13;5053558;28;19982;-76